Terminal Aerodrome Forecast
Issued by NWS

Home | Current Version | Previous Version | Text Only | Print | Product List | Glossary On
Versions: 1 2 3 4 5 6 7 8 9 10 11 12 13 14 15 16
000
FTPA31 PHFO 040524
TAFHMK
TAF
PHMK 040524Z 0406/0506 VRB04KT P6SM SCT020 SCT050
      TEMPO 0406/0408 BKN020
     FM042000 20010KT P6SM VCSH SCT020 BKN040
     FM050500 VRB04KT P6SM SCT020 BKN050=

USA.gov is the U.S. government's official web portal to all federal, state and local government web resources and services.